createdAt,value
2023-05-24T00:00:42.066Z,4.328
2023-05-24T00:01:41.955Z,4.335
2023-05-24T00:02:42.132Z,4.302
2023-05-24T00:03:42.217Z,4.302
2023-05-24T00:04:42.119Z,4.302
2023-05-24T00:05:42.059Z,4.302
2023-05-24T00:06:42.044Z,4.299
2023-05-24T00:07:42.061Z,4.329
2023-05-24T00:08:42.076Z,4.3
2023-05-24T00:09:41.099Z,4.269
2023-05-24T00:10:41.279Z,4.3
2023-05-24T00:11:41.111Z,4.359
2023-05-24T00:12:41.123Z,4.375
2023-05-24T00:13:41.124Z,4.422
2023-05-24T00:14:41.117Z,4.456
2023-05-24T00:15:41.152Z,4.457
2023-05-24T00:16:41.187Z,4.504
2023-05-24T00:17:41.507Z,4.488
2023-05-24T00:18:41.245Z,4.503
2023-05-24T00:19:41.257Z,4.519
2023-05-24T00:20:41.630Z,4.457
2023-05-24T00:21:41.266Z,4.474
2023-05-24T00:22:41.310Z,4.444
2023-05-24T00:23:41.307Z,4.462
2023-05-24T00:24:41.359Z,4.492
2023-05-24T00:25:41.365Z,4.522
2023-05-24T00:26:41.403Z,4.478
2023-05-24T00:27:41.373Z,4.461
2023-05-24T00:28:41.376Z,4.522
2023-05-24T00:29:41.392Z,4.582
2023-05-24T00:30:41.683Z,4.627
2023-05-24T00:31:41.467Z,4.681
2023-05-24T00:32:41.481Z,4.813
2023-05-24T00:33:41.447Z,4.855
2023-05-24T00:34:41.456Z,4.809
2023-05-24T00:35:41.488Z,4.781
2023-05-24T00:36:41.470Z,4.798
2023-05-24T00:37:41.509Z,4.864
2023-05-24T00:38:41.519Z,4.865
2023-05-24T00:39:41.552Z,4.864
2023-05-24T00:40:41.753Z,4.924
2023-05-24T00:41:41.599Z,4.956
2023-05-24T00:42:41.634Z,4.934
2023-05-24T00:43:41.653Z,4.948
2023-05-24T00:44:41.666Z,4.901
2023-05-24T00:45:41.690Z,4.897
2023-05-24T00:46:41.729Z,4.919
2023-05-24T00:47:41.768Z,4.867
2023-05-24T00:48:41.777Z,4.869
2023-05-24T00:49:41.772Z,4.85
2023-05-24T00:50:42.037Z,4.82
2023-05-24T00:51:41.804Z,4.818
2023-05-24T00:52:41.812Z,4.85
2023-05-24T00:53:41.822Z,4.902
2023-05-24T00:54:41.861Z,4.908
2023-05-24T00:55:41.854Z,4.877
2023-05-24T00:56:41.851Z,4.846
2023-05-24T00:57:41.868Z,4.847
2023-05-24T00:58:41.869Z,4.862
2023-05-24T00:59:41.876Z,4.862
2023-05-24T01:00:42.042Z,4.871
2023-05-24T01:01:42.082Z,4.826
2023-05-24T01:02:42.140Z,4.811
2023-05-24T01:03:42.235Z,4.811
2023-05-24T01:04:41.998Z,4.826
2023-05-24T01:05:42.020Z,4.81
2023-05-24T01:06:42.031Z,4.865
2023-05-24T01:07:42.067Z,4.848
2023-05-24T01:08:42.077Z,4.766
2023-05-24T01:09:41.090Z,4.766
2023-05-24T01:10:41.449Z,4.839
2023-05-24T01:11:41.130Z,4.854
2023-05-24T01:12:41.170Z,4.922
2023-05-24T01:13:41.158Z,4.9
2023-05-24T01:14:41.192Z,4.937
2023-05-24T01:15:41.237Z,4.922
2023-05-24T01:16:41.209Z,4.892
2023-05-24T01:17:41.250Z,4.967
2023-05-24T01:18:41.300Z,4.998
2023-05-24T01:19:41.262Z,4.997
2023-05-24T01:20:41.568Z,4.967
2023-05-24T01:21:41.268Z,4.975
2023-05-24T01:22:41.272Z,5.016
2023-05-24T01:23:41.284Z,5.015
2023-05-24T01:24:41.315Z,5.014
2023-05-24T01:25:41.331Z,4.986
2023-05-24T01:26:41.329Z,5.001
2023-05-24T01:27:41.358Z,5.015
2023-05-24T01:28:41.378Z,4.986
2023-05-24T01:29:41.392Z,4.956
2023-05-24T01:30:41.643Z,4.94
2023-05-24T01:31:41.511Z,4.956
2023-05-24T01:32:41.514Z,4.956
2023-05-24T01:33:41.475Z,4.986
2023-05-24T01:34:41.485Z,4.94
2023-05-24T01:35:41.531Z,4.986
2023-05-24T01:36:41.522Z,4.985
2023-05-24T01:37:41.532Z,5.001
2023-05-24T01:38:41.547Z,5.016
2023-05-24T01:39:41.586Z,5.045
2023-05-24T01:40:41.841Z,5.088
2023-05-24T01:41:41.587Z,5.091
2023-05-24T01:42:41.588Z,5.002
2023-05-24T01:43:41.607Z,5.016
2023-05-24T01:44:41.640Z,5.031
2023-05-24T01:45:41.616Z,5.03
2023-05-24T01:46:41.657Z,5.057
2023-05-24T01:47:41.724Z,5.072
2023-05-24T01:48:41.686Z,5.028
2023-05-24T01:49:41.744Z,4.998
2023-05-24T01:50:41.885Z,4.982
2023-05-24T01:51:41.842Z,4.966
2023-05-24T01:52:41.791Z,4.967
2023-05-24T01:53:41.800Z,4.952
2023-05-24T01:54:41.856Z,4.952
2023-05-24T01:55:41.852Z,4.983
2023-05-24T01:56:41.861Z,4.982
2023-05-24T01:57:41.886Z,4.938
2023-05-24T01:58:41.905Z,4.937
2023-05-24T01:59:41.951Z,4.922
2023-05-24T02:00:42.288Z,4.907
2023-05-24T02:01:41.994Z,4.953
2023-05-24T02:02:42.091Z,4.982
2023-05-24T02:03:41.971Z,4.982
2023-05-24T02:04:42.024Z,4.997
2023-05-24T02:05:42.017Z,5.057
2023-05-24T02:06:42.002Z,5.073
2023-05-24T02:07:42.008Z,5.058
2023-05-24T02:08:42.021Z,5.088
2023-05-24T02:09:42.055Z,5.061
2023-05-24T02:10:42.269Z,5.061
2023-05-24T02:11:41.095Z,5.076
2023-05-24T02:12:41.117Z,5.061
2023-05-24T02:13:41.168Z,5.047
2023-05-24T02:14:41.157Z,5.028
2023-05-24T02:15:41.181Z,5.044
2023-05-24T02:16:41.241Z,5.107
2023-05-24T02:17:41.308Z,5.052
2023-05-24T02:18:41.252Z,5.007
2023-05-24T02:19:41.273Z,5.074
2023-05-24T02:20:41.611Z,5.059
2023-05-24T02:21:41.309Z,5.037
2023-05-24T02:22:41.319Z,5.028
2023-05-24T02:23:41.336Z,5.033
2023-05-24T02:24:41.374Z,4.973
2023-05-24T02:25:41.368Z,4.907
2023-05-24T02:26:41.381Z,4.883
2023-05-24T02:27:41.412Z,4.891
2023-05-24T02:28:41.423Z,4.89
2023-05-24T02:29:41.425Z,4.919
2023-05-24T02:30:41.670Z,4.965
2023-05-24T02:31:41.455Z,4.935
2023-05-24T02:32:41.482Z,4.889
2023-05-24T02:33:41.471Z,4.905
2023-05-24T02:34:41.479Z,4.949
2023-05-24T02:35:41.519Z,4.919
2023-05-24T02:36:41.554Z,4.89
2023-05-24T02:37:41.585Z,4.861
2023-05-24T02:38:41.597Z,4.829
2023-05-24T02:39:41.615Z,4.828
2023-05-24T02:40:41.812Z,4.858
2023-05-24T02:41:41.663Z,4.905
2023-05-24T02:42:41.692Z,4.953
2023-05-24T02:43:41.694Z,4.982
2023-05-24T02:44:41.713Z,5.026
2023-05-24T02:45:41.737Z,5.013
2023-05-24T02:46:41.786Z,4.968
2023-05-24T02:47:41.850Z,4.95
2023-05-24T02:48:41.833Z,4.982
2023-05-24T02:49:41.806Z,4.965
2023-05-24T02:50:42.121Z,5.009
2023-05-24T02:51:41.829Z,4.952
2023-05-24T02:52:41.846Z,4.952
2023-05-24T02:53:41.857Z,4.983
2023-05-24T02:54:41.868Z,5.027
2023-05-24T02:55:41.860Z,5.043
2023-05-24T02:56:41.870Z,4.995
2023-05-24T02:57:41.869Z,5.012
2023-05-24T02:58:41.892Z,4.979
2023-05-24T02:59:41.922Z,4.946
2023-05-24T03:00:42.156Z,4.949
2023-05-24T03:01:42.049Z,4.932
2023-05-24T03:02:42.057Z,4.965
2023-05-24T03:03:42.177Z,4.96
2023-05-24T03:04:42.040Z,4.901
2023-05-24T03:05:42.064Z,4.89
2023-05-24T03:06:42.082Z,4.89
2023-05-24T03:07:41.101Z,4.905
2023-05-24T03:08:41.107Z,4.935
2023-05-24T03:09:41.130Z,4.844
2023-05-24T03:10:41.404Z,4.844
2023-05-24T03:11:41.163Z,4.859
2023-05-24T03:12:41.184Z,4.875
2023-05-24T03:13:41.190Z,4.859
2023-05-24T03:14:41.204Z,4.859
2023-05-24T03:15:41.213Z,4.857
2023-05-24T03:16:41.246Z,4.826
2023-05-24T03:17:41.286Z,4.887
2023-05-24T03:18:41.234Z,4.888
2023-05-24T03:19:41.259Z,4.797
2023-05-24T03:20:41.625Z,4.781
2023-05-24T03:21:41.282Z,4.751
2023-05-24T03:22:41.318Z,4.769
2023-05-24T03:23:41.335Z,4.798
2023-05-24T03:24:41.370Z,4.753
2023-05-24T03:25:41.389Z,4.723
2023-05-24T03:26:41.400Z,4.705
2023-05-24T03:27:41.425Z,4.711
2023-05-24T03:28:41.442Z,4.725
2023-05-24T03:29:41.469Z,4.757
2023-05-24T03:30:41.696Z,4.757
2023-05-24T03:31:41.526Z,4.757
2023-05-24T03:32:41.548Z,4.801
2023-05-24T03:33:41.559Z,4.829
2023-05-24T03:34:41.586Z,4.859
2023-05-24T03:35:41.600Z,4.83
2023-05-24T03:36:41.611Z,4.862
2023-05-24T03:37:41.631Z,4.829
2023-05-24T03:38:41.682Z,4.829
2023-05-24T03:39:41.640Z,4.799
2023-05-24T03:40:41.855Z,4.844
2023-05-24T03:41:41.653Z,4.859
2023-05-24T03:42:41.664Z,4.873
2023-05-24T03:43:41.686Z,4.877
2023-05-24T03:44:41.674Z,4.832
2023-05-24T03:45:41.769Z,4.817
2023-05-24T03:46:41.772Z,4.862
2023-05-24T03:47:41.787Z,4.862
2023-05-24T03:48:41.779Z,4.847
2023-05-24T03:49:41.802Z,4.832
2023-05-24T03:50:42.099Z,4.802
2023-05-24T03:51:41.863Z,4.772
2023-05-24T03:52:41.864Z,4.741
2023-05-24T03:53:41.880Z,4.848
2023-05-24T03:54:41.912Z,4.802
2023-05-24T03:55:41.929Z,4.773
2023-05-24T03:56:41.969Z,4.711
2023-05-24T03:57:42.000Z,4.695
2023-05-24T03:58:41.992Z,4.711
2023-05-24T03:59:42.006Z,4.712
2023-05-24T04:00:42.203Z,4.651
2023-05-24T04:01:42.034Z,4.65
2023-05-24T04:02:42.320Z,4.605
2023-05-24T04:03:42.132Z,4.635
2023-05-24T04:04:42.064Z,4.636
2023-05-24T04:05:42.086Z,4.636
2023-05-24T04:06:42.107Z,4.632
2023-05-24T04:07:41.085Z,4.586
2023-05-24T04:08:41.101Z,4.556
2023-05-24T04:09:41.106Z,4.52
2023-05-24T04:10:41.281Z,4.495
2023-05-24T04:11:41.148Z,4.443
2023-05-24T04:12:41.230Z,4.38
2023-05-24T04:13:41.187Z,4.335
2023-05-24T04:14:41.218Z,4.334
2023-05-24T04:15:41.261Z,4.351
2023-05-24T04:16:41.330Z,4.366
2023-05-24T04:17:41.383Z,4.352
2023-05-24T04:18:41.353Z,4.4
2023-05-24T04:19:41.329Z,4.385
2023-05-24T04:20:41.681Z,4.384
2023-05-24T04:21:41.372Z,4.4
2023-05-24T04:22:41.420Z,4.4
2023-05-24T04:23:41.406Z,4.396
2023-05-24T04:24:41.448Z,4.382
2023-05-24T04:25:41.496Z,4.397
2023-05-24T04:26:41.447Z,4.382
2023-05-24T04:27:41.465Z,4.35
2023-05-24T04:28:41.476Z,4.351
2023-05-24T04:29:41.495Z,4.334
2023-05-24T04:30:41.677Z,4.411
2023-05-24T04:31:41.548Z,4.396
2023-05-24T04:32:41.544Z,4.32
2023-05-24T04:33:41.518Z,4.289
2023-05-24T04:34:41.567Z,4.335
2023-05-24T04:35:41.572Z,4.319
2023-05-24T04:36:41.634Z,4.291
2023-05-24T04:37:41.654Z,4.273
2023-05-24T04:38:41.661Z,4.304
2023-05-24T04:39:41.680Z,4.257
2023-05-24T04:40:41.901Z,4.227
2023-05-24T04:41:41.710Z,4.18
2023-05-24T04:42:41.751Z,4.165
2023-05-24T04:43:41.766Z,4.182
2023-05-24T04:44:41.790Z,4.118
2023-05-24T04:45:41.851Z,4.119
2023-05-24T04:46:41.867Z,4.168
2023-05-24T04:47:41.864Z,4.183
2023-05-24T04:48:41.849Z,4.168
2023-05-24T04:49:41.867Z,4.183
2023-05-24T04:50:42.024Z,4.153
2023-05-24T04:51:41.903Z,4.167
2023-05-24T04:52:41.907Z,4.105
2023-05-24T04:53:41.912Z,4.106
2023-05-24T04:54:41.919Z,4.105
2023-05-24T04:55:41.923Z,4.186
2023-05-24T04:56:41.933Z,4.212
2023-05-24T04:57:41.951Z,4.197
2023-05-24T04:58:41.976Z,4.155
2023-05-24T04:59:41.994Z,4.08
2023-05-24T05:00:42.248Z,4.131
2023-05-24T05:01:42.082Z,4.099
2023-05-24T05:02:42.141Z,4.162
2023-05-24T05:03:42.213Z,4.196
2023-05-24T05:04:41.111Z,4.149
2023-05-24T05:05:41.130Z,4.071
2023-05-24T05:06:41.150Z,4.117
2023-05-24T05:07:41.176Z,4.074
2023-05-24T05:08:41.198Z,4.045
2023-05-24T05:09:41.197Z,4.063
2023-05-24T05:10:41.396Z,4.063
2023-05-24T05:11:41.224Z,4.062
2023-05-24T05:12:41.248Z,4.095
2023-05-24T05:13:41.265Z,4.141
2023-05-24T05:14:41.265Z,4.142
2023-05-24T05:15:42.897Z,4.079
2023-05-24T05:16:41.363Z,4.058
2023-05-24T05:17:41.324Z,4.063
2023-05-24T05:18:41.296Z,4.047
2023-05-24T05:19:41.308Z,4.016
2023-05-24T05:20:41.808Z,3.984
2023-05-24T05:21:41.364Z,4.047
2023-05-24T05:22:41.395Z,4.047
2023-05-24T05:23:41.409Z,4.093
2023-05-24T05:24:41.431Z,4.045
2023-05-24T05:25:41.453Z,4.079
2023-05-24T05:26:41.468Z,4.125
2023-05-24T05:27:41.514Z,4.095
2023-05-24T05:28:41.526Z,4.095
2023-05-24T05:29:41.543Z,4.168
2023-05-24T05:30:41.848Z,4.153
2023-05-24T05:31:41.606Z,4.168
2023-05-24T05:32:41.627Z,4.24
2023-05-24T05:33:41.692Z,4.253
2023-05-24T05:34:41.658Z,4.263
2023-05-24T05:35:41.675Z,4.261
2023-05-24T05:36:41.679Z,4.231
2023-05-24T05:37:41.743Z,4.178
2023-05-24T05:38:41.699Z,4.083
2023-05-24T05:39:41.715Z,4.086
2023-05-24T05:40:41.907Z,4.116
2023-05-24T05:41:43.511Z,4.134
2023-05-24T05:42:41.742Z,4.255
2023-05-24T05:43:41.744Z,4.308
2023-05-24T05:44:41.763Z,4.387
2023-05-24T05:45:41.863Z,4.374
2023-05-24T05:46:41.816Z,4.247
2023-05-24T05:47:41.861Z,4.184
2023-05-24T05:48:42.611Z,4.217
2023-05-24T05:49:41.891Z,4.247
2023-05-24T05:50:42.276Z,4.312
2023-05-24T05:51:41.944Z,4.184
2023-05-24T05:52:41.974Z,4.25
2023-05-24T05:53:41.990Z,4.252
2023-05-24T05:54:41.990Z,4.245
2023-05-24T05:55:42.007Z,4.26
2023-05-24T05:56:42.028Z,4.276
2023-05-24T05:57:42.042Z,4.212
2023-05-24T05:58:42.066Z,4.198
2023-05-24T05:59:42.060Z,4.197
2023-05-24T06:00:42.283Z,4.182
2023-05-24T06:01:41.105Z,4.205
2023-05-24T06:02:41.180Z,4.23
2023-05-24T06:03:41.412Z,4.275
2023-05-24T06:04:41.215Z,4.357
2023-05-24T06:05:41.133Z,4.315
2023-05-24T06:06:41.129Z,4.284
2023-05-24T06:07:41.141Z,4.226
2023-05-24T06:08:41.163Z,4.252
2023-05-24T06:09:41.194Z,4.324
2023-05-24T06:10:41.369Z,4.26
2023-05-24T06:11:41.233Z,4.275
2023-05-24T06:12:41.249Z,4.307
2023-05-24T06:13:41.286Z,4.273
2023-05-24T06:14:41.307Z,4.29
2023-05-24T06:15:41.339Z,4.386
2023-05-24T06:16:41.454Z,4.369
2023-05-24T06:17:41.388Z,4.428
2023-05-24T06:18:47.419Z,4.507
2023-05-24T06:19:41.422Z,4.396
2023-05-24T06:20:41.747Z,4.381
2023-05-24T06:21:41.449Z,4.41
2023-05-24T06:22:41.447Z,4.442
2023-05-24T06:23:41.465Z,4.477
2023-05-24T06:24:41.469Z,4.536
2023-05-24T06:25:41.492Z,4.569
2023-05-24T06:26:41.510Z,4.632
2023-05-24T06:27:41.506Z,4.583
2023-05-24T06:28:41.521Z,4.586
2023-05-24T06:29:41.580Z,4.494
2023-05-24T06:30:41.876Z,4.479
2023-05-24T06:31:41.607Z,4.544
2023-05-24T06:32:41.586Z,4.481
2023-05-24T06:33:44.581Z,4.511
2023-05-24T06:34:41.609Z,4.512
2023-05-24T06:35:41.638Z,4.523
2023-05-24T06:36:41.673Z,4.539
2023-05-24T06:37:41.698Z,4.543
2023-05-24T06:38:41.703Z,4.541
2023-05-24T06:39:41.727Z,4.509
2023-05-24T06:40:41.985Z,4.498
2023-05-24T06:41:41.769Z,4.482
2023-05-24T06:42:41.789Z,4.547
2023-05-24T06:43:41.787Z,4.532
2023-05-24T06:44:41.821Z,4.481
2023-05-24T06:45:41.854Z,4.56
2023-05-24T06:46:41.886Z,4.575
2023-05-24T06:47:41.961Z,4.56
2023-05-24T06:48:41.997Z,4.538
2023-05-24T06:49:41.885Z,4.631
2023-05-24T06:50:42.912Z,4.632
2023-05-24T06:51:41.933Z,4.536
2023-05-24T06:52:41.950Z,4.487
2023-05-24T06:53:41.958Z,4.535
2023-05-24T06:54:41.938Z,4.546
2023-05-24T06:55:41.963Z,4.58
2023-05-24T06:56:42.000Z,4.549
2023-05-24T06:57:42.004Z,4.596
2023-05-24T06:58:42.037Z,4.613
2023-05-24T06:59:42.061Z,4.597
2023-05-24T07:00:42.281Z,4.613
2023-05-24T07:01:41.192Z,4.63
2023-05-24T07:02:41.247Z,4.582
2023-05-24T07:03:41.164Z,4.565
2023-05-24T07:04:41.312Z,4.558
2023-05-24T07:05:41.217Z,4.59
2023-05-24T07:06:41.233Z,4.59
2023-05-24T07:07:41.270Z,4.61
2023-05-24T07:08:41.267Z,4.576
2023-05-24T07:09:41.305Z,4.608
2023-05-24T07:10:41.563Z,4.661
2023-05-24T07:11:41.382Z,4.647
2023-05-24T07:12:41.342Z,4.647
2023-05-24T07:13:41.373Z,4.614
2023-05-24T07:14:41.373Z,4.718
2023-05-24T07:15:41.390Z,4.719
2023-05-24T07:16:41.460Z,4.799
2023-05-24T07:17:41.417Z,4.83
2023-05-24T07:18:41.405Z,4.947
2023-05-24T07:19:41.417Z,4.98
2023-05-24T07:20:41.854Z,5.029
2023-05-24T07:21:41.449Z,4.975
2023-05-24T07:22:41.511Z,4.91
2023-05-24T07:23:41.490Z,4.962
2023-05-24T07:24:41.526Z,4.881
2023-05-24T07:25:41.536Z,4.904
2023-05-24T07:26:41.560Z,4.904
2023-05-24T07:27:41.596Z,4.791
2023-05-24T07:28:41.648Z,4.777
2023-05-24T07:29:41.630Z,4.758
2023-05-24T07:30:41.642Z,4.76
2023-05-24T07:31:41.676Z,4.829
2023-05-24T07:32:41.853Z,4.913
2023-05-24T07:33:41.714Z,4.9
2023-05-24T07:34:41.704Z,4.866
2023-05-24T07:35:41.741Z,4.834
2023-05-24T07:36:41.723Z,4.794
2023-05-24T07:37:41.752Z,4.747
2023-05-24T07:38:41.759Z,4.797
2023-05-24T07:39:41.770Z,4.912
2023-05-24T07:40:42.073Z,4.895
2023-05-24T07:41:41.787Z,4.866
2023-05-24T07:42:41.800Z,4.892
2023-05-24T07:43:41.825Z,4.941
2023-05-24T07:44:41.847Z,5.008
2023-05-24T07:45:42.269Z,5.023
2023-05-24T07:46:41.922Z,4.958
2023-05-24T07:47:41.934Z,4.941
2023-05-24T07:48:41.927Z,4.917
2023-05-24T07:49:41.945Z,4.859
2023-05-24T07:50:42.201Z,4.988
2023-05-24T07:51:41.987Z,5.039
2023-05-24T07:52:42.019Z,5.024
2023-05-24T07:53:42.036Z,5.073
2023-05-24T07:54:42.048Z,5.057
2023-05-24T07:55:42.262Z,5.011
2023-05-24T07:56:42.076Z,4.932
2023-05-24T07:57:41.091Z,4.867
2023-05-24T07:58:41.158Z,4.867
2023-05-24T07:59:41.108Z,4.968
2023-05-24T08:00:41.111Z,5
2023-05-24T08:01:41.114Z,5.151
2023-05-24T08:02:41.324Z,5.135
2023-05-24T08:03:41.312Z,5.186
2023-05-24T08:04:41.171Z,5.163
2023-05-24T08:05:41.390Z,5.148
2023-05-24T08:06:41.281Z,5
2023-05-24T08:07:41.238Z,4.953
2023-05-24T08:08:41.277Z,5.003
2023-05-24T08:09:41.299Z,5.047
2023-05-24T08:10:41.327Z,4.915
2023-05-24T08:11:41.327Z,4.814
2023-05-24T08:12:41.374Z,4.898
2023-05-24T08:13:41.368Z,4.925
2023-05-24T08:14:41.387Z,4.943
2023-05-24T08:15:41.704Z,4.926
2023-05-24T08:16:41.457Z,5.121
2023-05-24T08:17:41.501Z,5.154
2023-05-24T08:18:41.462Z,5.019
2023-05-24T08:19:41.467Z,5.108
2023-05-24T08:20:41.653Z,5.152
2023-05-24T08:21:41.482Z,5.101
2023-05-24T08:22:41.500Z,5.134
2023-05-24T08:23:41.515Z,5.093
2023-05-24T08:24:41.495Z,5.11
2023-05-24T08:25:41.805Z,5.045
2023-05-24T08:26:41.517Z,4.994
2023-05-24T08:27:41.542Z,5.002
2023-05-24T08:28:41.587Z,4.935
2023-05-24T08:29:41.598Z,4.918
2023-05-24T08:30:41.634Z,4.935
2023-05-24T08:31:41.702Z,4.996
2023-05-24T08:32:41.726Z,4.969
2023-05-24T08:33:41.704Z,4.903
2023-05-24T08:34:41.731Z,4.85
2023-05-24T08:35:41.914Z,4.815
2023-05-24T08:36:41.743Z,4.78
2023-05-24T08:37:41.760Z,4.713
2023-05-24T08:38:41.811Z,4.817
2023-05-24T08:39:41.807Z,4.85
2023-05-24T08:40:41.812Z,4.729
2023-05-24T08:41:41.837Z,4.702
2023-05-24T08:42:41.852Z,4.644
2023-05-24T08:43:41.870Z,4.66
2023-05-24T08:44:41.872Z,4.643
2023-05-24T08:45:42.297Z,4.669
2023-05-24T08:46:41.992Z,4.67
2023-05-24T08:47:41.926Z,4.807
2023-05-24T08:48:41.935Z,4.952
2023-05-24T08:49:41.933Z,5.024
2023-05-24T08:50:41.954Z,5.041
2023-05-24T08:51:41.976Z,4.973
2023-05-24T08:52:42.004Z,4.964
2023-05-24T08:53:42.018Z,5.102
2023-05-24T08:54:42.027Z,4.94
2023-05-24T08:55:42.251Z,4.985
2023-05-24T08:56:42.079Z,4.889
2023-05-24T08:57:41.242Z,4.746
2023-05-24T08:58:41.128Z,4.55
2023-05-24T08:59:41.156Z,4.676
2023-05-24T09:00:41.165Z,4.692
2023-05-24T09:01:41.257Z,4.86
2023-05-24T09:02:41.219Z,4.772
2023-05-24T09:03:41.296Z,4.875
2023-05-24T09:04:41.241Z,4.875
2023-05-24T09:05:41.733Z,5
2023-05-24T09:06:41.275Z,4.893
2023-05-24T09:07:41.290Z,4.595
2023-05-24T09:08:43.750Z,4.54
2023-05-24T09:09:41.291Z,4.485
2023-05-24T09:10:53.952Z,4.501
2023-05-24T09:11:41.296Z,4.708
2023-05-24T09:12:41.330Z,4.798
2023-05-24T09:13:41.358Z,4.872
2023-05-24T09:14:41.376Z,4.788
2023-05-24T09:15:41.700Z,4.751
2023-05-24T09:16:41.461Z,4.788
2023-05-24T09:17:41.468Z,4.684
2023-05-24T09:18:41.473Z,4.683
2023-05-24T09:19:41.478Z,4.721
2023-05-24T09:20:41.875Z,4.649
2023-05-24T09:21:41.537Z,4.649
2023-05-24T09:22:42.325Z,4.64
2023-05-24T09:23:41.640Z,4.66
2023-05-24T09:24:41.579Z,4.606
2023-05-24T09:25:41.598Z,4.672
2023-05-24T09:26:41.607Z,4.709
2023-05-24T09:27:41.663Z,4.601
2023-05-24T09:28:41.636Z,4.765
2023-05-24T09:29:41.641Z,4.751
2023-05-24T09:30:41.976Z,4.785
2023-05-24T09:31:41.736Z,4.911
2023-05-24T09:32:41.698Z,4.788
2023-05-24T09:33:41.663Z,4.659
2023-05-24T09:34:41.700Z,4.668
2023-05-24T09:35:41.745Z,4.761
2023-05-24T09:36:41.766Z,4.797
2023-05-24T09:37:41.778Z,4.508
2023-05-24T09:38:41.779Z,4.419
2023-05-24T09:39:41.798Z,4.526
2023-05-24T09:40:42.012Z,4.597
2023-05-24T09:41:41.860Z,4.452
2023-05-24T09:42:41.881Z,4.481
2023-05-24T09:43:41.886Z,4.451
2023-05-24T09:44:41.909Z,4.534
2023-05-24T09:45:41.933Z,4.444
2023-05-24T09:46:42.226Z,4.444
2023-05-24T09:47:42.013Z,4.371
2023-05-24T09:48:42.002Z,4.334
2023-05-24T09:49:41.991Z,4.426
2023-05-24T09:50:42.205Z,4.588
2023-05-24T09:51:42.068Z,4.698
2023-05-24T09:52:42.029Z,4.716
2023-05-24T09:53:42.021Z,4.75
2023-05-24T09:54:42.051Z,4.847
2023-05-24T09:55:42.050Z,4.927
2023-05-24T09:56:42.064Z,4.934
2023-05-24T09:57:42.078Z,4.917
2023-05-24T09:58:41.106Z,4.689
2023-05-24T09:59:41.128Z,4.725
2023-05-24T10:00:41.478Z,4.958
2023-05-24T10:01:41.195Z,4.863
2023-05-24T10:02:51.915Z,4.668
2023-05-24T10:03:41.465Z,4.704
2023-05-24T10:04:41.291Z,4.624
2023-05-24T10:05:41.263Z,4.693
2023-05-24T10:06:41.301Z,4.522
2023-05-24T10:07:41.311Z,4.398
2023-05-24T10:08:41.350Z,4.598
2023-05-24T10:09:41.335Z,4.386
2023-05-24T10:10:41.649Z,4.228
2023-05-24T10:11:41.387Z,4.093
2023-05-24T10:12:41.409Z,4.075
2023-05-24T10:13:41.427Z,4.126
2023-05-24T10:14:41.426Z,4.104
2023-05-24T10:15:41.450Z,4.176
2023-05-24T10:16:41.509Z,4.365
2023-05-24T10:17:41.493Z,4.458
2023-05-24T10:18:41.482Z,4.254
2023-05-24T10:19:41.472Z,4.487
2023-05-24T10:20:42.230Z,4.832
2023-05-24T10:21:41.530Z,4.919
2023-05-24T10:22:41.530Z,5.013
2023-05-24T10:23:41.541Z,5.064
2023-05-24T10:24:41.570Z,5.135
2023-05-24T10:25:41.591Z,5.034
2023-05-24T10:26:41.609Z,5.281
2023-05-24T10:27:41.631Z,5.058
2023-05-24T10:28:41.663Z,5.262
2023-05-24T10:29:41.674Z,5.652
2023-05-24T10:30:41.962Z,5.778
2023-05-24T10:31:41.739Z,5.825
2023-05-24T10:32:41.790Z,5.678
2023-05-24T10:33:41.776Z,5.755
2023-05-24T10:34:41.765Z,5.688
2023-05-24T10:35:41.784Z,5.77
2023-05-24T10:36:41.791Z,5.531
2023-05-24T10:37:41.813Z,5.431
2023-05-24T10:38:41.823Z,5.402
2023-05-24T10:39:41.832Z,5.501
2023-05-24T10:40:41.846Z,5.361
2023-05-24T10:41:41.879Z,5.131
2023-05-24T10:42:42.008Z,5.17
2023-05-24T10:43:41.850Z,5.216
2023-05-24T10:44:41.881Z,5.042
2023-05-24T10:45:41.910Z,4.966
2023-05-24T10:46:41.980Z,4.785
2023-05-24T10:47:41.945Z,4.738
2023-05-24T10:48:41.981Z,4.803
2023-05-24T10:49:41.986Z,5.068
2023-05-24T10:50:42.359Z,5.292
2023-05-24T10:51:42.033Z,4.85
2023-05-24T10:52:42.074Z,4.815
2023-05-24T10:53:42.075Z,4.878
2023-05-24T10:54:49.592Z,4.937
2023-05-24T10:55:41.124Z,4.77
2023-05-24T10:56:41.145Z,4.687
2023-05-24T10:57:41.160Z,4.988
2023-05-24T10:58:41.195Z,5.161
2023-05-24T10:59:41.212Z,4.915
2023-05-24T11:00:41.207Z,4.8
2023-05-24T11:01:41.253Z,4.942
2023-05-24T11:02:41.252Z,5.078
2023-05-24T11:03:41.252Z,5.16
2023-05-24T11:04:41.279Z,5.088
2023-05-24T11:05:41.402Z,4.989
2023-05-24T11:06:41.260Z,5.112
2023-05-24T11:07:41.272Z,5.091
2023-05-24T11:08:41.274Z,5.129
2023-05-24T11:09:41.293Z,5.226
2023-05-24T11:10:42.522Z,5.182
2023-05-24T11:11:41.337Z,5.017
2023-05-24T11:12:41.355Z,5.084
2023-05-24T11:13:41.379Z,5.111
2023-05-24T11:14:41.433Z,4.731
2023-05-24T11:15:41.438Z,4.645
2023-05-24T11:16:41.548Z,4.814
2023-05-24T11:17:43.485Z,4.928
2023-05-24T11:18:41.493Z,4.784
2023-05-24T11:19:41.534Z,4.742
2023-05-24T11:20:41.865Z,4.931
2023-05-24T11:21:41.569Z,5.086
2023-05-24T11:22:41.600Z,4.942
2023-05-24T11:23:41.572Z,4.92
2023-05-24T11:24:41.592Z,5.005
2023-05-24T11:25:41.593Z,4.902
2023-05-24T11:26:41.608Z,4.782
2023-05-24T11:27:41.639Z,4.943
2023-05-24T11:28:41.695Z,5
2023-05-24T11:29:41.660Z,4.84
2023-05-24T11:30:41.847Z,4.756
2023-05-24T11:31:44.594Z,4.619
2023-05-24T11:32:41.781Z,4.818
2023-05-24T11:33:41.753Z,4.693
2023-05-24T11:34:41.732Z,4.771
2023-05-24T11:35:41.766Z,4.889
2023-05-24T11:36:41.768Z,4.886
2023-05-24T11:37:46.437Z,4.963
2023-05-24T11:38:41.852Z,4.648
2023-05-24T11:39:41.835Z,4.747
2023-05-24T11:40:42.079Z,4.548
2023-05-24T11:41:41.884Z,4.409
2023-05-24T11:42:41.907Z,4.485
2023-05-24T11:43:41.942Z,4.643
2023-05-24T11:44:41.939Z,4.683
2023-05-24T11:45:42.031Z,4.781
2023-05-24T11:46:41.969Z,4.744
2023-05-24T11:47:42.036Z,5.071
2023-05-24T11:48:42.320Z,4.991
2023-05-24T11:49:42.002Z,4.984
2023-05-24T11:50:49.298Z,4.826
2023-05-24T11:51:42.034Z,4.611
2023-05-24T11:52:42.041Z,4.528
2023-05-24T11:53:42.025Z,4.445
2023-05-24T11:54:42.053Z,4.502
2023-05-24T11:55:42.236Z,4.572
2023-05-24T11:56:41.113Z,4.731
2023-05-24T11:57:41.130Z,4.495
2023-05-24T11:58:41.141Z,4.548
2023-05-24T11:59:41.190Z,4.841
2023-05-24T12:00:41.424Z,4.629
2023-05-24T12:01:41.219Z,4.702
2023-05-24T12:02:41.386Z,4.647
2023-05-24T12:03:41.525Z,4.953
2023-05-24T12:04:41.321Z,5.1
2023-05-24T12:05:41.311Z,5.368
2023-05-24T12:06:41.343Z,5.264
2023-05-24T12:07:41.338Z,5.119
2023-05-24T12:08:41.365Z,5.232
2023-05-24T12:09:41.367Z,5.284
2023-05-24T12:10:41.554Z,5.086
2023-05-24T12:11:41.385Z,5.044
2023-05-24T12:12:45.801Z,5.361
2023-05-24T12:13:41.406Z,5.178
2023-05-24T12:14:41.417Z,4.829
2023-05-24T12:15:41.443Z,4.981
2023-05-24T12:16:41.430Z,5.087
2023-05-24T12:17:41.502Z,4.96
2023-05-24T12:18:48.428Z,5.04
2023-05-24T12:19:41.489Z,5.095
2023-05-24T12:20:41.860Z,5.212
2023-05-24T12:21:41.538Z,5.086
2023-05-24T12:22:41.554Z,5.065
2023-05-24T12:23:41.571Z,5.102
2023-05-24T12:24:41.607Z,5.056
2023-05-24T12:25:41.628Z,5.139
2023-05-24T12:26:41.675Z,5.368
2023-05-24T12:27:41.672Z,5.286
2023-05-24T12:28:41.701Z,4.949
2023-05-24T12:29:42.255Z,4.907
2023-05-24T12:30:41.912Z,5.074
2023-05-24T12:31:41.848Z,5.169
2023-05-24T12:32:41.809Z,5.332
2023-05-24T12:33:41.766Z,5.433
2023-05-24T12:34:41.780Z,5.533
2023-05-24T12:35:41.785Z,5.306
2023-05-24T12:36:41.795Z,5.406
2023-05-24T12:37:41.806Z,5.36
2023-05-24T12:38:41.802Z,5.374
2023-05-24T12:39:41.819Z,5.468
2023-05-24T12:40:42.228Z,5.607
2023-05-24T12:41:41.864Z,5.411
2023-05-24T12:42:41.878Z,5.198
2023-05-24T12:43:41.928Z,5.278
2023-05-24T12:44:42.056Z,5.399
2023-05-24T12:45:41.996Z,5.154
2023-05-24T12:46:42.031Z,5.197
2023-05-24T12:47:42.051Z,5.204
2023-05-24T12:48:42.016Z,5.321
2023-05-24T12:49:42.062Z,5.381
2023-05-24T12:50:42.293Z,5.401
2023-05-24T12:51:42.093Z,5.401
2023-05-24T12:52:41.100Z,5.379
2023-05-24T12:53:41.127Z,5.28
2023-05-24T12:54:41.132Z,5.138
2023-05-24T12:55:41.148Z,5.227